Marseillais 6 — FQSJ — position and weather

sailwx.info

Track history (hours):
 
Tides and Currents Weather Stations Pressure Air Temp Water Temp Dewpoint Dewpoint Depression Visibility Wind Speed Wind Dir Waves Ship Positions

Marseillais 6

Last reported at 2016-Jul-24 08:33 UTC. Time now 2016-Jul-24 08:49 UTC.
Position N 43°26' E 004°54'.

Length 35 m; draft 5 m.

Type: Tug. MMSI: 227016900.

Date/timePositionNaut miles runAvg speedWind from/ knotsBaromVisibWave heightAir tempDewpointWater temp
2016-Jul-24 08:33N 43°26' E 004°54'0 0.0
2016-Jul-24 07:33N 43°26' E 004°54'2 2.3
2016-Jul-24 06:33N 43°27' E 004°51'3 2.9
2016-Jul-24 05:33N 43°24' E 004°53'1 1.3
2016-Jul-24 04:33N 43°26' E 004°54'1 0.8
2016-Jul-24 03:32N 43°25' E 004°53'1 1.0
2016-Jul-24 02:33N 43°24' E 004°53'0 0.0
2016-Jul-24 01:33N 43°24' E 004°53'2 1.7
2016-Jul-24 00:33N 43°26' E 004°54'0 0.0
2016-Jul-23 23:33N 43°26' E 004°54'0 0.0
2016-Jul-23 22:33N 43°26' E 004°54'0 0.0
2016-Jul-23 21:34N 43°26' E 004°54'0 0.0
2016-Jul-23 20:33N 43°26' E 004°54'1 1.0
2016-Jul-23 19:25N 43°26' E 004°52'1 1.3
2016-Jul-23 18:33N 43°26' E 004°54'0 0.0
2016-Jul-23 17:33N 43°26' E 004°54'0 0.0
2016-Jul-23 16:33N 43°26' E 004°54'3 2.8
2016-Jul-23 15:32N 43°25' E 004°50'3 2.9
2016-Jul-23 14:33N 43°26' E 004°54'0 0.0
2016-Jul-23 13:33N 43°26' E 004°54'0 0.0
2016-Jul-23 12:33N 43°26' E 004°54'0 0.0
2016-Jul-23 11:33N 43°26' E 004°54'0 0.0
2016-Jul-23 10:33N 43°26' E 004°54'4 3.6
2016-Jul-23 09:33N 43°23' E 004°58'2 2.2
2016-Jul-23 08:34N 43°24' E 005°00'5 4.8
2016-Jul-23 07:32N 43°26' E 004°54'0 0.0
2016-Jul-23 06:33N 43°26' E 004°54'0 0.0
2016-Jul-23 04:34N 43°26' E 004°54'0 0.0
2016-Jul-23 03:33N 43°26' E 004°54'0 0.0
2016-Jul-23 02:33N 43°26' E 004°54'1 1.0
2016-Jul-23 01:23N 43°25' E 004°53'1 1.4
2016-Jul-23 00:34N 43°26' E 004°54'0 0.0
2016-Jul-22 23:33N 43°26' E 004°54'0 0.0
2016-Jul-22 22:33N 43°26' E 004°54'0 0.0
2016-Jul-22 21:33N 43°26' E 004°54'0 0.0
2016-Jul-22 20:33N 43°26' E 004°54'0 0.0
2016-Jul-22 19:33N 43°26' E 004°54'0 0.0
2016-Jul-22 18:34N 43°26' E 004°54'0 0.0
2016-Jul-22 17:33N 43°26' E 004°54'0 0.0
2016-Jul-22 16:33N 43°26' E 004°54'0 0.0
2016-Jul-22 15:33N 43°26' E 004°54'0 0.0
2016-Jul-22 14:33N 43°26' E 004°54'0 0.0
2016-Jul-22 13:33N 43°26' E 004°54'0 0.0
2016-Jul-22 12:33N 43°26' E 004°54'0 0.0
2016-Jul-22 11:30N 43°26' E 004°54'3 2.9
2016-Jul-22 10:32N 43°25' E 004°50'3 2.9
2016-Jul-22 09:34N 43°26' E 004°54'0 0.0
2016-Jul-22 08:33N 43°26' E 004°54'0 0.0
2016-Jul-22 07:33N 43°26' E 004°54'0 0.0
2016-Jul-22 04:33N 43°26' E 004°54'0 0.0
2016-Jul-22 03:33N 43°26' E 004°54'0 0.0
2016-Jul-22 02:33N 43°26' E 004°54'0 0.0
2016-Jul-22 01:32N 43°26' E 004°54'0 0.0
2016-Jul-22 00:31N 43°26' E 004°54'0 0.0
2016-Jul-21 23:33N 43°26' E 004°54'0 0.0
2016-Jul-21 22:33N 43°26' E 004°54'0 0.0
2016-Jul-21 21:33N 43°26' E 004°54'0 0.0
2016-Jul-21 20:32N 43°26' E 004°54'0 0.0
2016-Jul-21 19:31N 43°26' E 004°54'0 0.0
2016-Jul-21 18:31N 43°26' E 004°54'0 0.0
2016-Jul-21 17:33N 43°26' E 004°54'0 0.0
2016-Jul-21 16:33N 43°26' E 004°54'0 0.0
2016-Jul-21 15:34N 43°26' E 004°54'0 0.0
2016-Jul-21 14:33N 43°26' E 004°54'0 0.0
2016-Jul-21 13:33N 43°26' E 004°54'0 0.0
2016-Jul-21 12:34N 43°26' E 004°54'0 0.0
2016-Jul-21 11:33N 43°26' E 004°54'0 0.0
2016-Jul-21 10:32N 43°26' E 004°54'0 0.0
2016-Jul-21 09:31N 43°26' E 004°54'0 0.0
2016-Jul-20 21:14N 43°26' E 004°54'3 0.3
2016-Jul-20 12:16N 43°24' E 004°56'3 0.2
2016-Jul-19 22:30N 43°24' E 004°53'2 0.9
2016-Jul-19 20:30N 43°26' E 004°54'0 0.0
2016-Jul-19 18:12N 43°26' E 004°54'2 1.2
2016-Jul-19 16:33N 43°24' E 004°55'3 2.5
2016-Jul-19 15:34N 43°23' E 004°59'1 0.1
2016-Jul-19 04:34N 43°24' E 004°59'1 0.3
2016-Jul-19 02:13N 43°23' E 004°59'1 0.9
2016-Jul-19 01:33N 43°24' E 004°59'0 0.0
2016-Jul-19 00:33N 43°24' E 004°59'0 0.0
2016-Jul-18 23:33N 43°24' E 004°59'0 0.0
2016-Jul-18 22:34N 43°24' E 004°59'0 0.0
2016-Jul-18 21:33N 43°24' E 004°59'0 0.0
2016-Jul-18 20:33N 43°24' E 004°59'0 0.0
2016-Jul-18 19:33N 43°24' E 004°59'0 0.0
2016-Jul-18 18:33N 43°24' E 004°59'0 0.0
2016-Jul-18 17:33N 43°24' E 004°59'0 0.0
2016-Jul-18 16:33N 43°24' E 004°59'0 0.0
2016-Jul-18 15:34N 43°24' E 004°59'0 0.0
2016-Jul-18 14:33N 43°24' E 004°59'0 0.0
2016-Jul-18 13:33N 43°24' E 004°59'0 0.0
2016-Jul-18 12:33N 43°24' E 004°59'0 0.0
2016-Jul-18 11:33N 43°24' E 004°59'0 0.0
2016-Jul-18 09:33N 43°24' E 004°59'1 0.4
2016-Jul-18 07:30N 43°23' E 004°58'1 1.0
2016-Jul-18 06:33N 43°24' E 004°59'0 0.0
2016-Jul-18 05:33N 43°24' E 004°59'0 0.0
2016-Jul-18 04:33N 43°24' E 004°59'1 0.3
2016-Jul-18 02:31N 43°23' E 004°59'1 0.6
2016-Jul-18 01:33N 43°24' E 004°59'0 0.0
2016-Jul-18 00:34N 43°24' E 004°59'0 0.0
2016-Jul-17 23:34N 43°24' E 004°59'0 0.0
2016-Jul-17 22:33N 43°24' E 004°59'1 0.5
2016-Jul-17 21:33N 43°24' E 004°60'1 0.5
2016-Jul-17 20:33N 43°24' E 004°59'0 0.0
2016-Jul-17 19:33N 43°24' E 004°59'0 0.0
2016-Jul-17 18:34N 43°24' E 004°59'1 0.3
2016-Jul-17 16:16N 43°23' E 004°58'1 0.8
2016-Jul-17 15:33N 43°24' E 004°59'0 0.0
2016-Jul-17 14:33N 43°24' E 004°59'0 0.0
2016-Jul-17 13:33N 43°24' E 004°59'0 0.0
2016-Jul-17 12:33N 43°24' E 004°59'0 0.0
2016-Jul-17 11:33N 43°24' E 004°59'0 0.0
2016-Jul-17 10:33N 43°24' E 004°59'0 0.0
2016-Jul-17 09:33N 43°24' E 004°59'0 0.0
2016-Jul-17 08:33N 43°24' E 004°59'0 0.0
2016-Jul-17 07:33N 43°24' E 004°59'0 0.4
2016-Jul-17 06:33N 43°24' E 004°60'0 0.2
2016-Jul-17 04:33N 43°24' E 004°59'0 0.0
2016-Jul-17 03:33N 43°24' E 004°59'0 0.0
2016-Jul-17 02:33N 43°24' E 004°59'0 0.0
2016-Jul-17 01:33N 43°24' E 004°59'0 0.4
2016-Jul-17 00:33N 43°24' E 004°60'0 0.4
2016-Jul-16 23:33N 43°24' E 004°59'0 0.0
2016-Jul-16 22:33N 43°24' E 004°59'0 0.0
2016-Jul-16 21:34N 43°24' E 004°59'0 0.0
2016-Jul-16 20:34N 43°24' E 004°59'0 0.0
2016-Jul-16 19:33N 43°24' E 004°59'0 0.0
2016-Jul-16 18:33N 43°24' E 004°59'0 0.0
2016-Jul-16 17:33N 43°24' E 004°59'0 0.0
2016-Jul-16 16:33N 43°24' E 004°59'0 0.0
2016-Jul-16 15:34N 43°24' E 004°59'0 0.1
2016-Jul-16 14:33N 43°24' E 004°59'1 0.2
2016-Jul-16 11:22N 43°23' E 004°58'1 0.8
2016-Jul-16 10:33N 43°24' E 004°59'0 0.0
2016-Jul-16 09:33N 43°24' E 004°59'0 0.0
2016-Jul-16 08:33N 43°24' E 004°59'0 0.0
2016-Jul-16 07:33N 43°24' E 004°59'0 0.5
2016-Jul-16 06:33N 43°24' E 004°60'0 0.2
2016-Jul-16 04:33N 43°24' E 004°59'0 0.0
2016-Jul-16 03:33N 43°24' E 004°59'0 0.0
2016-Jul-16 02:33N 43°24' E 004°59'0 0.0
2016-Jul-16 01:33N 43°24' E 004°59'0 0.0
2016-Jul-16 00:33N 43°24' E 004°59'0 0.0
2016-Jul-15 23:33N 43°24' E 004°59'0 0.0
2016-Jul-15 22:33N 43°24' E 004°59'0 0.0
2016-Jul-15 21:34N 43°24' E 004°59'0 0.0
2016-Jul-15 20:33N 43°24' E 004°59'0 0.0
2016-Jul-15 17:33N 43°24' E 004°59'1 0.2
2016-Jul-15 14:30N 43°23' E 004°58'1 0.7
2016-Jul-15 13:33N 43°24' E 004°59'0 0.0
2016-Jul-15 12:33N 43°24' E 004°59'0 0.0
2016-Jul-15 11:33N 43°24' E 004°59'0 0.0
2016-Jul-15 10:34N 43°24' E 004°59'0 0.0
2016-Jul-15 09:33N 43°24' E 004°59'0 0.0
2016-Jul-15 08:34N 43°24' E 004°59'0 0.0
2016-Jul-15 07:33N 43°24' E 004°59'0 0.0
2016-Jul-15 06:33N 43°24' E 004°59'2 0.3
2016-Jul-14 23:22N 43°24' E 004°56'  
Track history (hours):
 
Tides and Currents Weather Stations Pressure Air Temp Water Temp Dewpoint Dewpoint Depression Visibility Wind Speed Wind Dir Waves Ship Positions

Marseillais 6

Last reported at 2016-Jul-24 08:33 UTC. Time now 2016-Jul-24 08:49 UTC.
Position N 43°26' E 004°54'.

Length 35 m; draft 5 m.

Type: Tug. MMSI: 227016900.

Date/timePositionNaut miles runAvg speedWind from/ knotsBaromVisibWave heightAir tempDewpointWater temp
2016-Jul-24 08:33N 43°26' E 004°54'0 0.0
2016-Jul-24 07:33N 43°26' E 004°54'2 2.3
2016-Jul-24 06:33N 43°27' E 004°51'3 2.9
2016-Jul-24 05:33N 43°24' E 004°53'1 1.3
2016-Jul-24 04:33N 43°26' E 004°54'1 0.8
2016-Jul-24 03:32N 43°25' E 004°53'1 1.0
2016-Jul-24 02:33N 43°24' E 004°53'0 0.0
2016-Jul-24 01:33N 43°24' E 004°53'2 1.7
2016-Jul-24 00:33N 43°26' E 004°54'0 0.0
2016-Jul-23 23:33N 43°26' E 004°54'0 0.0
2016-Jul-23 22:33N 43°26' E 004°54'0 0.0
2016-Jul-23 21:34N 43°26' E 004°54'0 0.0
2016-Jul-23 20:33N 43°26' E 004°54'1 1.0
2016-Jul-23 19:25N 43°26' E 004°52'1 1.3
2016-Jul-23 18:33N 43°26' E 004°54'0 0.0
2016-Jul-23 17:33N 43°26' E 004°54'0 0.0
2016-Jul-23 16:33N 43°26' E 004°54'3 2.8
2016-Jul-23 15:32N 43°25' E 004°50'3 2.9
2016-Jul-23 14:33N 43°26' E 004°54'0 0.0
2016-Jul-23 13:33N 43°26' E 004°54'0 0.0
2016-Jul-23 12:33N 43°26' E 004°54'0 0.0
2016-Jul-23 11:33N 43°26' E 004°54'0 0.0
2016-Jul-23 10:33N 43°26' E 004°54'4 3.6
2016-Jul-23 09:33N 43°23' E 004°58'2 2.2
2016-Jul-23 08:34N 43°24' E 005°00'5 4.8
2016-Jul-23 07:32N 43°26' E 004°54'0 0.0
2016-Jul-23 06:33N 43°26' E 004°54'0 0.0
2016-Jul-23 04:34N 43°26' E 004°54'0 0.0
2016-Jul-23 03:33N 43°26' E 004°54'0 0.0
2016-Jul-23 02:33N 43°26' E 004°54'1 1.0
2016-Jul-23 01:23N 43°25' E 004°53'1 1.4
2016-Jul-23 00:34N 43°26' E 004°54'0 0.0
2016-Jul-22 23:33N 43°26' E 004°54'0 0.0
2016-Jul-22 22:33N 43°26' E 004°54'0 0.0
2016-Jul-22 21:33N 43°26' E 004°54'0 0.0
2016-Jul-22 20:33N 43°26' E 004°54'0 0.0
2016-Jul-22 19:33N 43°26' E 004°54'0 0.0
2016-Jul-22 18:34N 43°26' E 004°54'0 0.0
2016-Jul-22 17:33N 43°26' E 004°54'0 0.0
2016-Jul-22 16:33N 43°26' E 004°54'0 0.0
2016-Jul-22 15:33N 43°26' E 004°54'0 0.0
2016-Jul-22 14:33N 43°26' E 004°54'0 0.0
2016-Jul-22 13:33N 43°26' E 004°54'0 0.0
2016-Jul-22 12:33N 43°26' E 004°54'0 0.0
2016-Jul-22 11:30N 43°26' E 004°54'3 2.9
2016-Jul-22 10:32N 43°25' E 004°50'3 2.9
2016-Jul-22 09:34N 43°26' E 004°54'0 0.0
2016-Jul-22 08:33N 43°26' E 004°54'0 0.0
2016-Jul-22 07:33N 43°26' E 004°54'0 0.0
2016-Jul-22 04:33N 43°26' E 004°54'0 0.0
2016-Jul-22 03:33N 43°26' E 004°54'0 0.0
2016-Jul-22 02:33N 43°26' E 004°54'0 0.0
2016-Jul-22 01:32N 43°26' E 004°54'0 0.0
2016-Jul-22 00:31N 43°26' E 004°54'0 0.0
2016-Jul-21 23:33N 43°26' E 004°54'0 0.0
2016-Jul-21 22:33N 43°26' E 004°54'0 0.0
2016-Jul-21 21:33N 43°26' E 004°54'0 0.0
2016-Jul-21 20:32N 43°26' E 004°54'0 0.0
2016-Jul-21 19:31N 43°26' E 004°54'0 0.0
2016-Jul-21 18:31N 43°26' E 004°54'0 0.0
2016-Jul-21 17:33N 43°26' E 004°54'0 0.0
2016-Jul-21 16:33N 43°26' E 004°54'0 0.0
2016-Jul-21 15:34N 43°26' E 004°54'0 0.0
2016-Jul-21 14:33N 43°26' E 004°54'0 0.0
2016-Jul-21 13:33N 43°26' E 004°54'0 0.0
2016-Jul-21 12:34N 43°26' E 004°54'0 0.0
2016-Jul-21 11:33N 43°26' E 004°54'0 0.0
2016-Jul-21 10:32N 43°26' E 004°54'0 0.0
2016-Jul-21 09:31N 43°26' E 004°54'0 0.0
2016-Jul-20 21:14N 43°26' E 004°54'3 0.3
2016-Jul-20 12:16N 43°24' E 004°56'3 0.2
2016-Jul-19 22:30N 43°24' E 004°53'2 0.9
2016-Jul-19 20:30N 43°26' E 004°54'0 0.0
2016-Jul-19 18:12N 43°26' E 004°54'2 1.2
2016-Jul-19 16:33N 43°24' E 004°55'3 2.5
2016-Jul-19 15:34N 43°23' E 004°59'1 0.1
2016-Jul-19 04:34N 43°24' E 004°59'1 0.3
2016-Jul-19 02:13N 43°23' E 004°59'1 0.9
2016-Jul-19 01:33N 43°24' E 004°59'0 0.0
2016-Jul-19 00:33N 43°24' E 004°59'0 0.0
2016-Jul-18 23:33N 43°24' E 004°59'0 0.0
2016-Jul-18 22:34N 43°24' E 004°59'0 0.0
2016-Jul-18 21:33N 43°24' E 004°59'0 0.0
2016-Jul-18 20:33N 43°24' E 004°59'0 0.0
2016-Jul-18 19:33N 43°24' E 004°59'0 0.0
2016-Jul-18 18:33N 43°24' E 004°59'0 0.0
2016-Jul-18 17:33N 43°24' E 004°59'0 0.0
2016-Jul-18 16:33N 43°24' E 004°59'0 0.0
2016-Jul-18 15:34N 43°24' E 004°59'0 0.0
2016-Jul-18 14:33N 43°24' E 004°59'0 0.0
2016-Jul-18 13:33N 43°24' E 004°59'0 0.0
2016-Jul-18 12:33N 43°24' E 004°59'0 0.0
2016-Jul-18 11:33N 43°24' E 004°59'0 0.0
2016-Jul-18 09:33N 43°24' E 004°59'1 0.4
2016-Jul-18 07:30N 43°23' E 004°58'1 1.0
2016-Jul-18 06:33N 43°24' E 004°59'0 0.0
2016-Jul-18 05:33N 43°24' E 004°59'0 0.0
2016-Jul-18 04:33N 43°24' E 004°59'1 0.3
2016-Jul-18 02:31N 43°23' E 004°59'1 0.6
2016-Jul-18 01:33N 43°24' E 004°59'0 0.0
2016-Jul-18 00:34N 43°24' E 004°59'0 0.0
2016-Jul-17 23:34N 43°24' E 004°59'0 0.0
2016-Jul-17 22:33N 43°24' E 004°59'1 0.5
2016-Jul-17 21:33N 43°24' E 004°60'1 0.5
2016-Jul-17 20:33N 43°24' E 004°59'0 0.0
2016-Jul-17 19:33N 43°24' E 004°59'0 0.0
2016-Jul-17 18:34N 43°24' E 004°59'1 0.3
2016-Jul-17 16:16N 43°23' E 004°58'1 0.8
2016-Jul-17 15:33N 43°24' E 004°59'0 0.0
2016-Jul-17 14:33N 43°24' E 004°59'0 0.0
2016-Jul-17 13:33N 43°24' E 004°59'0 0.0
2016-Jul-17 12:33N 43°24' E 004°59'0 0.0
2016-Jul-17 11:33N 43°24' E 004°59'0 0.0
2016-Jul-17 10:33N 43°24' E 004°59'0 0.0
2016-Jul-17 09:33N 43°24' E 004°59'0 0.0
2016-Jul-17 08:33N 43°24' E 004°59'0 0.0
2016-Jul-17 07:33N 43°24' E 004°59'0 0.4
2016-Jul-17 06:33N 43°24' E 004°60'0 0.2
2016-Jul-17 04:33N 43°24' E 004°59'0 0.0
2016-Jul-17 03:33N 43°24' E 004°59'0 0.0
2016-Jul-17 02:33N 43°24' E 004°59'0 0.0
2016-Jul-17 01:33N 43°24' E 004°59'0 0.4
2016-Jul-17 00:33N 43°24' E 004°60'0 0.4
2016-Jul-16 23:33N 43°24' E 004°59'0 0.0
2016-Jul-16 22:33N 43°24' E 004°59'0 0.0
2016-Jul-16 21:34N 43°24' E 004°59'0 0.0
2016-Jul-16 20:34N 43°24' E 004°59'0 0.0
2016-Jul-16 19:33N 43°24' E 004°59'0 0.0
2016-Jul-16 18:33N 43°24' E 004°59'0 0.0
2016-Jul-16 17:33N 43°24' E 004°59'0 0.0
2016-Jul-16 16:33N 43°24' E 004°59'0 0.0
2016-Jul-16 15:34N 43°24' E 004°59'0 0.1
2016-Jul-16 14:33N 43°24' E 004°59'1 0.2
2016-Jul-16 11:22N 43°23' E 004°58'1 0.8
2016-Jul-16 10:33N 43°24' E 004°59'0 0.0
2016-Jul-16 09:33N 43°24' E 004°59'0 0.0
2016-Jul-16 08:33N 43°24' E 004°59'0 0.0
2016-Jul-16 07:33N 43°24' E 004°59'0 0.5
2016-Jul-16 06:33N 43°24' E 004°60'0 0.2
2016-Jul-16 04:33N 43°24' E 004°59'0 0.0
2016-Jul-16 03:33N 43°24' E 004°59'0 0.0
2016-Jul-16 02:33N 43°24' E 004°59'0 0.0
2016-Jul-16 01:33N 43°24' E 004°59'0 0.0
2016-Jul-16 00:33N 43°24' E 004°59'0 0.0
2016-Jul-15 23:33N 43°24' E 004°59'0 0.0
2016-Jul-15 22:33N 43°24' E 004°59'0 0.0
2016-Jul-15 21:34N 43°24' E 004°59'0 0.0
2016-Jul-15 20:33N 43°24' E 004°59'0 0.0
2016-Jul-15 17:33N 43°24' E 004°59'1 0.2
2016-Jul-15 14:30N 43°23' E 004°58'1 0.7
2016-Jul-15 13:33N 43°24' E 004°59'0 0.0
2016-Jul-15 12:33N 43°24' E 004°59'0 0.0
2016-Jul-15 11:33N 43°24' E 004°59'0 0.0
2016-Jul-15 10:34N 43°24' E 004°59'0 0.0
2016-Jul-15 09:33N 43°24' E 004°59'0 0.0
2016-Jul-15 08:34N 43°24' E 004°59'0 0.0
2016-Jul-15 07:33N 43°24' E 004°59'0 0.0
2016-Jul-15 06:33N 43°24' E 004°59'2 0.3
2016-Jul-14 23:22N 43°24' E 004°56'  

Dump ship's entire track history